createdAt,value
2023-07-08T00:02:16.075Z,4.60
2023-07-08T00:05:06.195Z,4.53
2023-07-08T00:07:55.447Z,4.55
2023-07-08T00:10:44.901Z,4.80
2023-07-08T00:13:36.389Z,4.38
2023-07-08T00:16:27.048Z,4.30
2023-07-08T00:19:20.488Z,4.38
2023-07-08T00:22:15.721Z,4.53
2023-07-08T00:25:05.573Z,4.72
2023-07-08T00:27:54.858Z,4.50
2023-07-08T00:30:45.880Z,4.30
2023-07-08T00:33:35.174Z,4.53
2023-07-08T00:36:27.087Z,4.03
2023-07-08T00:39:17.064Z,4.18
2023-07-08T00:42:16.316Z,4.38
2023-07-08T00:45:18.285Z,4.20
2023-07-08T00:48:17.965Z,4.38
2023-07-08T00:51:11.637Z,3.97
2023-07-08T00:54:01.119Z,4.35
2023-07-08T00:56:55.323Z,3.90
2023-07-08T00:59:50.792Z,4.20
2023-07-08T01:02:44.467Z,4.40
2023-07-08T01:05:35.934Z,4.65
2023-07-08T01:08:29.898Z,5.05
2023-07-08T01:11:22.806Z,4.90
2023-07-08T01:14:18.681Z,4.35
2023-07-08T01:17:08.041Z,4.82
2023-07-08T01:19:58.225Z,5.10
2023-07-08T01:22:49.005Z,4.97
2023-07-08T01:25:38.463Z,5.43
2023-07-08T01:28:28.435Z,5.43
2023-07-08T01:31:17.998Z,5.25
2023-07-08T01:34:07.858Z,5.10
2023-07-08T01:37:00.137Z,5.32
2023-07-08T01:39:50.848Z,6.20
2023-07-08T01:42:40.138Z,5.50
2023-07-08T01:45:33.796Z,5.18
2023-07-08T01:48:26.544Z,6.03
2023-07-08T01:51:17.961Z,5.95
2023-07-08T01:54:07.457Z,6.00
2023-07-08T01:57:01.896Z,5.82
2023-07-08T01:59:51.422Z,5.57
2023-07-08T02:02:40.827Z,5.95
2023-07-08T02:05:30.237Z,5.97
2023-07-08T02:08:19.643Z,6.38
2023-07-08T02:11:08.881Z,6.35
2023-07-08T02:14:01.569Z,6.68
2023-07-08T02:16:51.290Z,6.40
2023-07-08T02:19:40.571Z,6.32
2023-07-08T02:22:29.912Z,6.35
2023-07-08T02:25:19.461Z,6.60
2023-07-08T02:28:31.856Z,6.85
2023-07-08T02:31:25.960Z,6.28
2023-07-08T02:34:15.357Z,6.13
2023-07-08T02:37:05.033Z,6.57
2023-07-08T02:39:54.672Z,7.07
2023-07-08T02:42:44.153Z,7.28
2023-07-08T02:45:34.028Z,7.13
2023-07-08T02:48:24.857Z,6.88
2023-07-08T02:51:14.152Z,7.18
2023-07-08T02:54:03.540Z,7.43
2023-07-08T02:56:53.757Z,7.60
2023-07-08T02:59:43.101Z,7.82
2023-07-08T03:02:32.480Z,7.50
2023-07-08T03:05:23.250Z,7.93
2023-07-08T03:08:12.662Z,7.75
2023-07-08T03:11:04.841Z,8.38
2023-07-08T03:13:54.184Z,7.35
2023-07-08T03:16:43.683Z,8.15
2023-07-08T03:19:34.560Z,7.75
2023-07-08T03:22:25.317Z,7.93
2023-07-08T03:25:14.720Z,8.13
2023-07-08T03:28:04.250Z,8.10
2023-07-08T03:30:55.620Z,7.35
2023-07-08T03:33:45.225Z,7.45
2023-07-08T03:36:34.646Z,8.40
2023-07-08T03:39:26.848Z,7.30
2023-07-08T03:42:16.180Z,7.40
2023-07-08T03:45:07.399Z,6.68
2023-07-08T03:47:56.876Z,7.60
2023-07-08T03:50:46.464Z,7.55
2023-07-08T03:53:35.800Z,7.25
2023-07-08T03:56:27.090Z,7.40
2023-07-08T03:59:16.418Z,7.28
2023-07-08T04:02:06.456Z,6.80
2023-07-08T04:04:55.823Z,7.28
2023-07-08T04:07:46.103Z,7.22
2023-07-08T04:10:35.456Z,7.63
2023-07-08T04:13:26.302Z,7.70
2023-07-08T04:16:21.158Z,7.35
2023-07-08T04:19:15.495Z,7.78
2023-07-08T04:22:06.878Z,7.65
2023-07-08T04:24:56.439Z,8.05
2023-07-08T04:27:45.885Z,7.88
2023-07-08T04:30:42.144Z,7.82
2023-07-08T04:33:31.671Z,8.43
2023-07-08T04:36:22.825Z,7.90
2023-07-08T04:39:13.047Z,7.95
2023-07-08T04:42:02.289Z,7.07
2023-07-08T04:44:53.115Z,7.85
2023-07-08T04:47:44.420Z,8.20
2023-07-08T04:50:33.783Z,8.57
2023-07-08T04:53:23.302Z,8.20
2023-07-08T04:56:12.667Z,7.75
2023-07-08T04:59:02.858Z,9.20
2023-07-08T05:01:53.493Z,9.00
2023-07-08T05:04:44.321Z,8.98
2023-07-08T05:07:33.677Z,8.40
2023-07-08T05:10:23.949Z,9.13
2023-07-08T05:13:13.204Z,8.90
2023-07-08T05:16:02.682Z,8.68
2023-07-08T05:18:52.139Z,9.52
2023-07-08T05:21:44.328Z,8.57
2023-07-08T05:24:33.645Z,9.23
2023-07-08T05:27:23.151Z,10.30
2023-07-08T05:30:18.314Z,9.05
2023-07-08T05:33:07.576Z,9.13
2023-07-08T05:35:57.329Z,9.43
2023-07-08T05:38:47.984Z,9.15
2023-07-08T05:41:37.331Z,8.88
2023-07-08T05:44:26.702Z,8.25
2023-07-08T05:47:17.156Z,8.50
2023-07-08T05:50:07.668Z,8.95
2023-07-08T05:52:57.028Z,7.43
2023-07-08T05:55:47.955Z,7.60
2023-07-08T05:58:37.464Z,7.53
2023-07-08T06:01:26.872Z,6.72
2023-07-08T06:04:16.738Z,7.47
2023-07-08T06:07:06.677Z,5.93
2023-07-08T06:09:57.190Z,6.60
2023-07-08T06:12:48.355Z,5.57
2023-07-08T06:15:37.754Z,3.58
2023-07-08T06:18:27.293Z,4.07
2023-07-08T06:21:16.610Z,3.80
2023-07-08T06:24:06.988Z,4.78
2023-07-08T06:26:59.611Z,3.90
2023-07-08T06:29:50.687Z,3.80
2023-07-08T06:32:40.242Z,3.90
2023-07-08T06:35:29.588Z,4.13
2023-07-08T06:38:19.215Z,3.75
2023-07-08T06:41:08.662Z,3.42
2023-07-08T06:43:59.251Z,3.67
2023-07-08T06:46:53.061Z,3.65
2023-07-08T06:49:42.684Z,3.33
2023-07-08T06:52:35.394Z,3.70
2023-07-08T06:55:24.843Z,3.40
2023-07-08T06:58:14.323Z,3.08
2023-07-08T07:01:04.096Z,3.45
2023-07-08T07:03:55.232Z,3.22
2023-07-08T07:06:44.903Z,2.83
2023-07-08T07:09:34.424Z,2.90
2023-07-08T07:12:24.299Z,3.00
2023-07-08T07:15:13.674Z,2.92
2023-07-08T07:18:03.177Z,3.08
2023-07-08T07:20:57.591Z,2.60
2023-07-08T07:23:47.050Z,3.05
2023-07-08T07:26:37.760Z,2.47
2023-07-08T07:29:27.449Z,2.40
2023-07-08T07:32:19.094Z,2.30
2023-07-08T07:35:14.008Z,2.97
2023-07-08T07:38:05.787Z,2.40
2023-07-08T07:40:55.934Z,2.65
2023-07-08T07:43:45.254Z,2.47
2023-07-08T07:46:34.615Z,2.55
2023-07-08T07:49:24.124Z,2.65
2023-07-08T07:52:13.420Z,2.67
2023-07-08T07:55:05.270Z,1.80
2023-07-08T07:57:54.668Z,2.13
2023-07-08T08:00:44.256Z,3.13
2023-07-08T08:03:33.588Z,1.85
2023-07-08T08:06:23.096Z,2.08
2023-07-08T08:09:13.848Z,1.60
2023-07-08T08:12:10.046Z,1.75
2023-07-08T08:14:59.481Z,1.45
2023-07-08T08:17:50.667Z,1.40
2023-07-08T08:20:40.885Z,1.33
2023-07-08T08:23:30.815Z,1.30
2023-07-08T08:26:20.292Z,1.20
2023-07-08T08:29:11.023Z,1.30
2023-07-08T08:32:00.420Z,1.70
2023-07-08T08:34:49.924Z,1.35
2023-07-08T08:37:39.257Z,1.42
2023-07-08T08:40:28.645Z,1.48
2023-07-08T08:43:23.289Z,1.30
2023-07-08T08:46:28.762Z,2.10
2023-07-08T08:49:27.922Z,1.90
2023-07-08T08:52:17.577Z,1.30
2023-07-08T08:55:14.292Z,1.20
2023-07-08T08:58:17.672Z,1.30
2023-07-08T09:01:13.253Z,1.67
2023-07-08T09:04:11.382Z,1.45
2023-07-08T09:07:15.321Z,1.40
2023-07-08T09:10:12.261Z,1.63
2023-07-08T09:13:04.848Z,1.48
2023-07-08T09:16:04.576Z,1.92
2023-07-08T09:19:02.245Z,1.60
2023-07-08T09:22:02.524Z,1.42
2023-07-08T09:24:58.436Z,1.45
2023-07-08T09:27:50.057Z,1.50
2023-07-08T09:30:39.392Z,1.50
2023-07-08T09:33:28.749Z,1.48
2023-07-08T09:36:26.181Z,1.80
2023-07-08T09:39:20.149Z,1.70
2023-07-08T09:42:10.509Z,2.92
2023-07-08T09:45:02.752Z,2.30
2023-07-08T09:47:56.172Z,1.15
2023-07-08T09:50:49.777Z,1.50
2023-07-08T09:53:39.966Z,1.60
2023-07-08T09:56:32.786Z,1.45
2023-07-08T09:59:30.317Z,1.30
2023-07-08T10:02:33.678Z,1.50
2023-07-08T10:05:31.237Z,1.63
2023-07-08T10:08:23.905Z,1.70
2023-07-08T10:14:25.334Z,1.20
2023-07-08T10:17:20.763Z,1.73
2023-07-08T10:20:15.833Z,1.40
2023-07-08T10:23:25.730Z,1.00
2023-07-08T10:26:27.314Z,1.42
2023-07-08T10:29:33.207Z,1.02
2023-07-08T10:32:39.258Z,1.63
2023-07-08T10:35:32.764Z,1.67
2023-07-08T10:38:39.559Z,1.20
2023-07-08T10:41:41.694Z,1.48
2023-07-08T10:44:39.054Z,1.40
2023-07-08T10:47:46.165Z,1.50
2023-07-08T10:50:56.028Z,1.58
2023-07-08T10:54:20.441Z,1.40
2023-07-08T10:57:37.973Z,1.90
2023-07-08T11:00:36.691Z,1.48
2023-07-08T11:04:07.915Z,1.20
2023-07-08T11:07:02.576Z,1.40
2023-07-08T11:09:56.728Z,1.38
2023-07-08T11:12:51.020Z,1.80
2023-07-08T11:15:51.408Z,1.50
2023-07-08T11:18:50.357Z,1.33
2023-07-08T11:21:47.322Z,1.45
2023-07-08T11:24:45.519Z,1.40
2023-07-08T11:27:42.811Z,1.23
2023-07-08T11:30:36.004Z,1.85
2023-07-08T11:33:28.724Z,1.58
2023-07-08T11:39:35.700Z,1.58
2023-07-08T11:42:37.014Z,1.95
2023-07-08T11:45:32.939Z,1.70
2023-07-08T11:48:30.451Z,1.90
2023-07-08T11:51:23.165Z,1.70
2023-07-08T11:57:10.443Z,1.60
2023-07-08T12:00:20.285Z,1.75
2023-07-08T12:03:24.029Z,1.70
2023-07-08T12:06:56.087Z,2.20
2023-07-08T12:09:58.979Z,1.80
2023-07-08T12:12:49.670Z,1.42
2023-07-08T12:15:39.249Z,1.13
2023-07-08T12:18:37.115Z,1.30
2023-07-08T12:21:28.908Z,1.50
2023-07-08T12:24:26.569Z,1.48
2023-07-08T12:27:15.960Z,1.80
2023-07-08T12:30:06.053Z,1.80
2023-07-08T12:32:56.602Z,2.13
2023-07-08T12:35:49.391Z,1.75
2023-07-08T12:38:42.916Z,1.50
2023-07-08T12:41:39.502Z,1.20
2023-07-08T12:44:29.252Z,1.50
2023-07-08T12:47:23.164Z,1.48
2023-07-08T12:50:13.614Z,3.80
2023-07-08T12:53:05.891Z,1.40
2023-07-08T12:56:00.364Z,1.65
2023-07-08T12:58:54.888Z,1.40
2023-07-08T13:01:47.313Z,1.40
2023-07-08T13:04:38.889Z,1.50
2023-07-08T13:07:38.873Z,1.77
2023-07-08T13:10:31.654Z,1.42
2023-07-08T13:13:27.137Z,1.33
2023-07-08T13:16:18.719Z,1.60
2023-07-08T13:19:08.418Z,1.40
2023-07-08T13:22:00.188Z,1.63
2023-07-08T13:24:50.780Z,1.30
2023-07-08T13:27:40.312Z,1.55
2023-07-08T13:30:33.593Z,1.50
2023-07-08T13:33:25.679Z,1.60
2023-07-08T13:36:18.889Z,1.40
2023-07-08T13:39:17.953Z,1.67
2023-07-08T13:42:10.433Z,1.45
2023-07-08T13:44:59.888Z,1.55
2023-07-08T13:48:12.075Z,1.45
2023-07-08T13:51:10.264Z,1.75
2023-07-08T13:54:04.525Z,1.70
2023-07-08T13:56:55.974Z,1.98
2023-07-08T13:59:45.465Z,1.50
2023-07-08T14:02:36.370Z,1.70
2023-07-08T14:05:26.374Z,1.50
2023-07-08T14:08:20.127Z,1.70
2023-07-08T14:11:09.706Z,1.73
2023-07-08T14:14:00.444Z,1.65
2023-07-08T14:16:55.693Z,1.52
2023-07-08T14:19:45.057Z,1.67
2023-07-08T14:22:34.318Z,1.27
2023-07-08T14:25:25.399Z,1.60
2023-07-08T14:28:14.790Z,1.40
2023-07-08T14:31:04.780Z,2.00
2023-07-08T14:34:04.382Z,1.73
2023-07-08T14:36:54.212Z,1.88
2023-07-08T14:39:43.961Z,1.80
2023-07-08T14:42:35.004Z,2.15
2023-07-08T14:45:24.360Z,2.00
2023-07-08T14:48:14.207Z,1.90
2023-07-08T14:51:03.942Z,1.65
2023-07-08T14:53:56.376Z,2.08
2023-07-08T14:56:47.985Z,1.98
2023-07-08T14:59:38.994Z,1.98
2023-07-08T15:02:28.583Z,2.10
2023-07-08T15:05:24.217Z,1.88
2023-07-08T15:08:14.717Z,2.08
2023-07-08T15:11:07.373Z,1.60
2023-07-08T15:13:56.899Z,1.80
2023-07-08T15:16:48.038Z,1.83
2023-07-08T15:19:37.895Z,1.98
2023-07-08T15:22:27.454Z,1.80
2023-07-08T15:25:17.992Z,1.80
2023-07-08T15:28:07.834Z,2.00
2023-07-08T15:30:57.528Z,2.28
2023-07-08T15:33:48.368Z,1.92
2023-07-08T15:36:37.810Z,2.15
2023-07-08T15:39:27.222Z,2.08
2023-07-08T15:42:16.972Z,2.15
2023-07-08T15:45:17.878Z,1.95
2023-07-08T15:48:07.909Z,1.90
2023-07-08T15:50:59.149Z,1.90
2023-07-08T15:53:48.915Z,2.25
2023-07-08T15:56:38.402Z,2.10
2023-07-08T15:59:31.860Z,1.85
2023-07-08T16:02:30.021Z,1.95
2023-07-08T16:05:21.196Z,1.83
2023-07-08T16:08:12.938Z,2.28
2023-07-08T16:11:06.532Z,1.90
2023-07-08T16:13:56.006Z,2.08
2023-07-08T16:16:45.919Z,2.17
2023-07-08T16:19:36.596Z,2.15
2023-07-08T16:22:26.239Z,2.28
2023-07-08T16:25:18.859Z,2.15
2023-07-08T16:28:08.963Z,1.83
2023-07-08T16:30:58.895Z,1.80
2023-07-08T16:33:50.837Z,2.10
2023-07-08T16:36:40.614Z,1.90
2023-07-08T16:39:30.019Z,1.85
2023-07-08T16:42:20.769Z,1.95
2023-07-08T16:45:14.280Z,2.05
2023-07-08T16:48:03.955Z,2.00
2023-07-08T16:50:53.649Z,2.20
2023-07-08T16:53:43.446Z,1.88
2023-07-08T16:56:32.832Z,2.00
2023-07-08T16:59:23.652Z,2.17
2023-07-08T17:02:16.049Z,1.83
2023-07-08T17:05:22.577Z,2.08
2023-07-08T17:08:15.880Z,1.90
2023-07-08T17:11:05.252Z,2.08
2023-07-08T17:13:54.734Z,2.20
2023-07-08T17:16:49.329Z,2.05
2023-07-08T17:19:40.464Z,1.90
2023-07-08T17:22:29.720Z,2.65
2023-07-08T17:25:23.106Z,2.00
2023-07-08T17:28:12.488Z,2.53
2023-07-08T17:31:02.684Z,2.10
2023-07-08T17:33:58.940Z,1.90
2023-07-08T17:36:49.201Z,2.58
2023-07-08T17:39:38.637Z,2.47
2023-07-08T17:42:28.027Z,1.90
2023-07-08T17:45:20.891Z,1.98
2023-07-08T17:48:24.345Z,1.95
2023-07-08T17:51:17.046Z,1.75
2023-07-08T17:54:06.717Z,1.98
2023-07-08T17:56:58.100Z,1.98
2023-07-08T17:59:48.477Z,1.90
2023-07-08T18:02:37.920Z,2.45
2023-07-08T18:05:28.939Z,2.10
2023-07-08T18:08:19.695Z,2.00
2023-07-08T18:11:13.477Z,1.80
2023-07-08T18:14:03.305Z,2.22
2023-07-08T18:16:52.809Z,2.08
2023-07-08T18:19:42.668Z,2.40
2023-07-08T18:22:32.417Z,2.20
2023-07-08T18:25:26.809Z,2.10
2023-07-08T18:28:16.235Z,1.88
2023-07-08T18:31:10.956Z,2.35
2023-07-08T18:34:02.408Z,1.90
2023-07-08T18:36:51.861Z,1.90
2023-07-08T18:39:41.409Z,2.30
2023-07-08T18:42:32.611Z,2.10
2023-07-08T18:45:24.296Z,1.97
2023-07-08T18:48:15.393Z,1.90
2023-07-08T18:51:13.030Z,2.13
2023-07-08T18:54:02.380Z,1.98
2023-07-08T18:56:52.039Z,1.90
2023-07-08T18:59:42.894Z,2.40
2023-07-08T19:02:36.186Z,3.90
2023-07-08T19:05:26.037Z,1.90
2023-07-08T19:08:15.507Z,1.90
2023-07-08T19:11:05.922Z,1.70
2023-07-08T19:13:55.442Z,1.77
2023-07-08T19:16:46.943Z,1.85
2023-07-08T19:19:36.434Z,2.03
2023-07-08T19:22:25.973Z,1.85
2023-07-08T19:25:21.064Z,1.92
2023-07-08T19:28:10.879Z,2.67
2023-07-08T19:31:00.278Z,2.35
2023-07-08T19:33:53.317Z,3.45
2023-07-08T19:36:42.838Z,3.25
2023-07-08T19:39:32.172Z,4.38
2023-07-08T19:42:27.612Z,2.50
2023-07-08T19:45:23.723Z,1.80
2023-07-08T19:48:14.280Z,5.05
2023-07-08T19:51:05.273Z,3.38
2023-07-08T19:53:54.810Z,5.82
2023-07-08T19:56:45.076Z,8.00
2023-07-08T19:59:34.476Z,8.45
2023-07-08T20:02:23.877Z,6.53
2023-07-08T20:05:15.045Z,5.25
2023-07-08T20:08:20.339Z,8.10
2023-07-08T20:11:11.241Z,4.70
2023-07-08T20:14:00.850Z,3.28
2023-07-08T20:16:50.436Z,2.13
2023-07-08T20:19:41.317Z,2.92
2023-07-08T20:22:32.819Z,2.40
2023-07-08T20:28:17.623Z,1.95
2023-07-08T20:31:06.997Z,2.55
2023-07-08T20:33:56.804Z,2.38
2023-07-08T20:36:46.303Z,2.30
2023-07-08T20:39:35.748Z,2.20
2023-07-08T20:42:26.625Z,2.53
2023-07-08T20:45:17.880Z,2.30
2023-07-08T20:48:15.932Z,2.50
2023-07-08T20:51:05.721Z,3.58
2023-07-08T20:53:55.896Z,2.60
2023-07-08T20:56:45.342Z,1.73
2023-07-08T20:59:36.075Z,2.90
2023-07-08T21:02:28.226Z,2.47
2023-07-08T21:05:17.822Z,2.20
2023-07-08T21:08:21.972Z,2.20
2023-07-08T21:11:13.324Z,2.28
2023-07-08T21:14:02.915Z,2.20
2023-07-08T21:16:56.665Z,2.42
2023-07-08T21:19:46.975Z,2.47
2023-07-08T21:22:39.637Z,2.15
2023-07-08T21:25:29.070Z,2.72
2023-07-08T21:28:28.067Z,2.58
2023-07-08T21:31:18.295Z,3.60
2023-07-08T21:34:11.454Z,2.78
2023-07-08T21:37:04.017Z,2.75
2023-07-08T21:39:53.560Z,2.40
2023-07-08T21:42:43.014Z,2.50
2023-07-08T21:45:36.529Z,2.58
2023-07-08T21:48:25.903Z,3.05
2023-07-08T21:51:27.325Z,3.30
2023-07-08T21:54:17.217Z,2.90
2023-07-08T21:57:07.510Z,2.50
2023-07-08T21:59:58.928Z,2.22
2023-07-08T22:02:52.270Z,2.65
2023-07-08T22:05:42.408Z,2.67
2023-07-08T22:08:33.276Z,2.42
2023-07-08T22:11:29.842Z,2.50
2023-07-08T22:14:19.109Z,2.28
2023-07-08T22:17:17.167Z,2.67
2023-07-08T22:20:08.386Z,2.20
2023-07-08T22:22:58.630Z,2.30
2023-07-08T22:25:49.565Z,1.90
2023-07-08T22:28:39.153Z,2.58
2023-07-08T22:31:32.311Z,2.40
2023-07-08T22:34:22.022Z,2.00
2023-07-08T22:37:13.351Z,2.17
2023-07-08T22:40:04.650Z,2.00
2023-07-08T22:45:47.606Z,2.50
2023-07-08T22:48:38.395Z,2.17
2023-07-08T22:51:28.917Z,2.17
2023-07-08T22:54:19.654Z,2.88
2023-07-08T22:57:10.061Z,2.20
2023-07-08T23:00:01.391Z,2.70
2023-07-08T23:02:51.481Z,2.60
2023-07-08T23:05:42.947Z,2.42
2023-07-08T23:08:34.938Z,2.40
2023-07-08T23:11:24.571Z,2.40
2023-07-08T23:14:14.341Z,2.50
2023-07-08T23:17:09.897Z,2.65
2023-07-08T23:19:59.363Z,2.50
2023-07-08T23:22:50.064Z,2.25
2023-07-08T23:25:39.607Z,2.20
2023-07-08T23:28:29.491Z,2.40
2023-07-08T23:31:19.162Z,2.38
2023-07-08T23:34:11.017Z,2.40
2023-07-08T23:37:03.486Z,2.42
2023-07-08T23:39:53.967Z,1.98
2023-07-08T23:42:44.373Z,2.15
2023-07-08T23:45:33.869Z,2.33
2023-07-08T23:48:23.284Z,2.10
2023-07-08T23:51:14.017Z,2.30
2023-07-08T23:54:03.360Z,3.10
2023-07-08T23:56:55.218Z,2.17
2023-07-08T23:59:50.269Z,3.28
